Hovedside
METAR-TAF:

METAR-TAF

Lufthavner :

Bhubaneswar, India

breddegrad: 20-14-40N, lengdegrad: 85-49-04E, høyde over havet: 45 m

Gjeldene værobservasjon

Denne rapporten ble laget for 32 minutter siden, klokken 02:00 UTC
Vind 5 kt fra Sør
Temperatur 30°C
Luftfuktighet 89%
Trykk 1002 hPa
Sikt: 4500 m
Få skyer i en høyde av 1800 ft
Spredte skyer i en høyde av 10000 ft
dis,

METAR: VEBS 200200Z 17005KT 4500 HZ FEW018 SCT100 30/28 Q1002 NOSIG

Tid: 08:02 (02:32 UTC)

Varsel

Denne rapporten ble laget for 3 timer og 32 minutter siden, klokken 23:00 UTC
Varsel gyldig fra 20. klokken 00 UTC til 20. klokken 09 UTC
Vind 6 kt fra Sør-sørvest
Sikt: 3500 m
Spredte skyer i en høyde av 1800 ft
Brutte skyer i en høyde av 9000 ft
dis
Blir
fra 20. klokken 03 UTC til 20. klokken 05 UTC
Vind 8 kt fra Sør-sørvest
Sikt: 5000 m
dis,

TAF: VEBS 192300Z 2000/2009 21006KT 3500 HZ SCT018 BKN090 BECMG 2003/2005 20008KT 5000 HZ

Værobservasjoner og værvarsel for over 4000 flyplasser (METAR- og TAF-rapporter).

Tilgjengelige stasjoner er representert av de røde og gule prikkene på kartet.

Hold musepekeren over prikken for å se navnet på stasjonen.

Klikk så for å se værobservasjoner og -varsler.

For å forandre kartet kan du klikke på den grønne knappen med svart kryss for å zoome inn, på den grønne knappen med strek for å zoome ut, eller på de grønne pilene for å se tilstøtende kart.


METAR-TAF: